createdAt,value
2018-05-23T00:01:38.352Z,17.50
2018-05-23T00:04:05.253Z,17.40
2018-05-23T00:06:31.416Z,17.40
2018-05-23T00:08:57.578Z,17.40
2018-05-23T00:11:23.728Z,17.40
2018-05-23T00:13:49.933Z,17.30
2018-05-23T00:16:16.508Z,17.40
2018-05-23T00:18:42.672Z,17.30
2018-05-23T00:21:09.563Z,17.20
2018-05-23T00:23:35.712Z,17.20
2018-05-23T00:26:01.867Z,17.20
2018-05-23T00:28:28.761Z,17.30
2018-05-23T00:30:55.000Z,17.20
2018-05-23T00:33:21.274Z,17.30
2018-05-23T00:35:48.164Z,17.30
2018-05-23T00:38:14.312Z,17.30
2018-05-23T00:40:40.567Z,17.30
2018-05-23T00:43:06.790Z,17.20
2018-05-23T00:45:32.973Z,17.20
2018-05-23T00:47:59.127Z,17.20
2018-05-23T00:50:25.271Z,17.20
2018-05-23T00:52:51.546Z,17.10
2018-05-23T00:55:30.069Z,17.10
2018-05-23T00:57:56.219Z,17.00
2018-05-23T01:00:22.365Z,17.00
2018-05-23T01:02:48.551Z,16.90
2018-05-23T01:05:14.702Z,16.90
2018-05-23T01:07:40.865Z,17.00
2018-05-23T01:10:07.056Z,17.00
2018-05-23T01:12:33.229Z,17.00
2018-05-23T01:15:00.138Z,16.90
2018-05-23T01:17:26.404Z,16.80
2018-05-23T01:19:53.312Z,16.80
2018-05-23T01:22:19.489Z,16.80
2018-05-23T01:24:46.933Z,16.70
2018-05-23T01:27:13.809Z,16.80
2018-05-23T01:29:39.970Z,16.80
2018-05-23T01:32:06.168Z,16.80
2018-05-23T01:34:32.316Z,16.80
2018-05-23T01:36:59.065Z,16.70
2018-05-23T01:39:26.768Z,16.70
2018-05-23T01:41:53.524Z,16.60
2018-05-23T01:44:20.757Z,16.60
2018-05-23T01:46:49.937Z,16.50
2018-05-23T01:49:25.348Z,16.50
2018-05-23T01:51:51.552Z,16.40
2018-05-23T01:54:18.467Z,16.40
2018-05-23T01:56:44.776Z,16.30
2018-05-23T01:59:11.101Z,16.30
2018-05-23T02:01:37.294Z,16.30
2018-05-23T02:04:03.975Z,16.30
2018-05-23T02:06:30.163Z,16.30
2018-05-23T02:08:56.723Z,16.20
2018-05-23T02:11:22.941Z,16.20
2018-05-23T02:13:49.335Z,16.20
2018-05-23T02:16:16.926Z,16.20
2018-05-23T02:18:43.390Z,16.20
2018-05-23T02:21:09.577Z,16.10
2018-05-23T02:23:36.483Z,16.10
2018-05-23T02:26:02.648Z,16.10
2018-05-23T02:28:29.573Z,16.10
2018-05-23T02:30:55.743Z,16.10
2018-05-23T02:33:21.953Z,16.10
2018-05-23T02:35:48.924Z,16.00
2018-05-23T02:38:15.124Z,16.00
2018-05-23T02:40:42.024Z,16.00
2018-05-23T02:43:08.165Z,16.00
2018-05-23T02:45:34.324Z,16.00
2018-05-23T02:48:01.224Z,15.90
2018-05-23T02:50:27.503Z,15.90
2018-05-23T02:52:54.395Z,15.90
2018-05-23T02:55:20.577Z,15.90
2018-05-23T02:57:47.552Z,15.80
2018-05-23T03:00:13.800Z,15.80
2018-05-23T03:02:39.951Z,15.90
2018-05-23T03:05:06.132Z,15.90
2018-05-23T03:07:32.273Z,15.80
2018-05-23T03:09:58.420Z,15.80
2018-05-23T03:12:24.573Z,15.80
2018-05-23T03:14:51.148Z,15.80
2018-05-23T03:17:17.316Z,15.80
2018-05-23T03:19:43.467Z,15.70
2018-05-23T03:22:10.470Z,15.70
2018-05-23T03:24:36.578Z,15.70
2018-05-23T03:27:02.736Z,15.70
2018-05-23T03:29:29.192Z,15.60
2018-05-23T03:31:55.344Z,15.60
2018-05-23T03:34:21.485Z,15.50
2018-05-23T03:36:47.646Z,15.50
2018-05-23T03:39:13.811Z,15.50
2018-05-23T03:41:41.142Z,15.50
2018-05-23T03:44:07.307Z,15.40
2018-05-23T03:46:34.215Z,15.50
2018-05-23T03:49:00.368Z,15.50
2018-05-23T03:51:27.299Z,15.40
2018-05-23T03:53:53.468Z,15.40
2018-05-23T03:56:19.812Z,15.40
2018-05-23T03:58:45.964Z,15.40
2018-05-23T04:01:24.536Z,15.30
2018-05-23T04:04:02.964Z,15.30
2018-05-23T04:06:41.344Z,15.30
2018-05-23T04:09:08.247Z,15.40
2018-05-23T04:11:34.420Z,15.30
2018-05-23T04:14:01.327Z,15.40
2018-05-23T04:16:28.207Z,15.40
2018-05-23T04:18:55.260Z,15.40
2018-05-23T04:21:22.156Z,15.40
2018-05-23T04:23:48.326Z,15.40
2018-05-23T04:26:15.237Z,15.40
2018-05-23T04:28:41.396Z,15.40
2018-05-23T04:31:08.296Z,15.40
2018-05-23T04:33:34.475Z,15.40
2018-05-23T04:36:01.787Z,15.40
2018-05-23T04:38:27.924Z,15.40
2018-05-23T04:40:54.148Z,15.40
2018-05-23T04:43:20.308Z,15.40
2018-05-23T04:45:47.212Z,15.40
2018-05-23T04:48:13.433Z,15.40
2018-05-23T04:50:39.653Z,15.40
2018-05-23T04:53:05.809Z,15.40
2018-05-23T04:55:31.972Z,15.50
2018-05-23T04:57:58.866Z,15.50
2018-05-23T05:00:25.639Z,15.50
2018-05-23T05:02:51.889Z,15.50
2018-05-23T05:05:18.806Z,15.60
2018-05-23T05:07:45.433Z,15.60
2018-05-23T05:10:11.593Z,15.60
2018-05-23T05:12:37.740Z,15.70
2018-05-23T05:15:04.024Z,15.80
2018-05-23T05:17:30.172Z,15.80
2018-05-23T05:19:56.350Z,15.70
2018-05-23T05:22:22.895Z,15.80
2018-05-23T05:24:49.097Z,15.90
2018-05-23T05:27:15.248Z,15.80
2018-05-23T05:29:41.397Z,15.90
2018-05-23T05:32:07.557Z,15.90
2018-05-23T05:34:34.857Z,16.00
2018-05-23T05:37:01.160Z,16.00
2018-05-23T05:39:27.311Z,16.10
2018-05-23T05:41:53.461Z,16.20
2018-05-23T05:44:19.739Z,16.60
2018-05-23T05:46:45.887Z,17.00
2018-05-23T05:49:12.053Z,17.60
2018-05-23T05:51:38.231Z,17.70
2018-05-23T05:54:04.396Z,17.80
2018-05-23T05:56:30.602Z,17.40
2018-05-23T05:58:56.752Z,17.30
2018-05-23T06:01:22.934Z,17.40
2018-05-23T06:03:49.224Z,17.30
2018-05-23T06:06:15.424Z,17.30
2018-05-23T06:08:41.569Z,17.60
2018-05-23T06:11:07.759Z,17.70
2018-05-23T06:13:33.928Z,18.00
2018-05-23T06:16:00.080Z,18.00
2018-05-23T06:18:27.098Z,18.10
2018-05-23T06:20:53.244Z,18.10
2018-05-23T06:23:19.401Z,18.00
2018-05-23T06:25:45.681Z,18.10
2018-05-23T06:28:11.832Z,18.20
2018-05-23T06:30:38.377Z,18.30
2018-05-23T06:33:05.297Z,18.30
2018-05-23T06:35:32.624Z,18.50
2018-05-23T06:37:58.767Z,18.50
2018-05-23T06:40:24.921Z,18.70
2018-05-23T06:42:51.076Z,18.80
2018-05-23T06:45:17.230Z,18.90
2018-05-23T06:47:43.407Z,19.00
2018-05-23T06:50:09.680Z,19.10
2018-05-23T06:52:35.819Z,19.20
2018-05-23T06:55:02.074Z,19.50
2018-05-23T06:57:28.816Z,19.30
2018-05-23T06:59:54.979Z,19.60
2018-05-23T07:02:21.871Z,19.70
2018-05-23T07:04:48.127Z,19.70
2018-05-23T07:07:14.401Z,19.90
2018-05-23T07:09:40.592Z,19.90
2018-05-23T07:12:06.756Z,20.10
2018-05-23T07:14:32.915Z,20.10
2018-05-23T07:16:59.120Z,20.10
2018-05-23T07:19:25.342Z,20.30
2018-05-23T07:21:51.500Z,20.40
2018-05-23T07:24:17.716Z,20.50
2018-05-23T07:26:43.965Z,20.40
2018-05-23T07:29:10.469Z,20.30
2018-05-23T07:31:36.652Z,20.60
2018-05-23T07:34:02.825Z,20.90
2018-05-23T07:36:29.118Z,20.90
2018-05-23T07:38:56.064Z,21.20
2018-05-23T07:41:22.955Z,21.20
2018-05-23T07:43:49.274Z,21.20
2018-05-23T07:46:15.424Z,21.10
2018-05-23T07:48:41.588Z,21.30
2018-05-23T07:51:07.766Z,21.50
2018-05-23T07:53:33.938Z,21.80
2018-05-23T07:56:00.184Z,21.70
2018-05-23T07:58:27.065Z,21.80
2018-05-23T08:00:53.301Z,21.70
2018-05-23T08:03:19.520Z,21.80
2018-05-23T08:05:45.928Z,22.10
2018-05-23T08:08:12.820Z,22.10
2018-05-23T08:10:39.026Z,22.10
2018-05-23T08:13:05.260Z,22.20
2018-05-23T08:15:31.508Z,22.00
2018-05-23T08:17:58.032Z,22.40
2018-05-23T08:20:24.273Z,22.70
2018-05-23T08:22:50.460Z,22.70
2018-05-23T08:25:16.667Z,22.60
2018-05-23T08:27:43.572Z,23.00
2018-05-23T08:30:09.780Z,23.00
2018-05-23T08:32:36.005Z,23.00
2018-05-23T08:35:02.156Z,23.10
2018-05-23T08:37:28.386Z,23.20
2018-05-23T08:39:54.687Z,23.10
2018-05-23T08:42:20.836Z,23.20
2018-05-23T08:44:47.216Z,23.40
2018-05-23T08:47:14.176Z,23.90
2018-05-23T08:49:41.077Z,24.10
2018-05-23T08:52:07.245Z,24.10
2018-05-23T08:54:34.164Z,24.00
2018-05-23T08:57:00.386Z,24.00
2018-05-23T08:59:26.533Z,24.10
2018-05-23T09:01:53.455Z,24.40
2018-05-23T09:04:19.677Z,24.40
2018-05-23T09:06:46.296Z,24.60
2018-05-23T09:09:12.456Z,24.70
2018-05-23T09:11:38.705Z,24.70
2018-05-23T09:14:05.648Z,25.00
2018-05-23T09:16:32.604Z,25.00
2018-05-23T09:18:59.512Z,24.70
2018-05-23T09:21:26.158Z,24.70
2018-05-23T09:23:53.153Z,24.50
2018-05-23T09:26:19.333Z,24.30
2018-05-23T09:28:45.552Z,24.40
2018-05-23T09:31:11.704Z,24.40
2018-05-23T09:33:37.876Z,24.50
2018-05-23T09:36:04.473Z,24.80
2018-05-23T09:38:31.416Z,25.10
2018-05-23T09:40:57.568Z,25.00
2018-05-23T09:43:23.734Z,25.10
2018-05-23T09:45:49.936Z,25.20
2018-05-23T09:48:16.102Z,25.10
2018-05-23T09:50:42.244Z,25.10
2018-05-23T09:53:08.401Z,25.40
2018-05-23T09:55:34.556Z,25.40
2018-05-23T09:58:00.727Z,25.40
2018-05-23T10:00:26.868Z,25.50
2018-05-23T10:02:53.781Z,25.50
2018-05-23T10:05:19.928Z,25.50
2018-05-23T10:07:46.077Z,25.60
2018-05-23T10:10:13.018Z,25.10
2018-05-23T10:12:40.329Z,25.10
2018-05-23T10:15:06.485Z,25.10
2018-05-23T10:17:32.636Z,25.00
2018-05-23T10:19:59.512Z,25.10
2018-05-23T10:22:25.668Z,25.10
2018-05-23T10:24:52.005Z,25.20
2018-05-23T10:27:18.164Z,25.20
2018-05-23T10:29:45.052Z,25.20
2018-05-23T10:32:11.211Z,25.10
2018-05-23T10:34:37.373Z,25.50
2018-05-23T10:37:03.592Z,25.60
2018-05-23T10:39:30.599Z,25.80
2018-05-23T10:41:56.773Z,25.80
2018-05-23T10:44:22.949Z,25.90
2018-05-23T10:46:49.157Z,25.70
2018-05-23T10:49:15.466Z,25.70
2018-05-23T10:51:41.690Z,25.40
2018-05-23T10:54:08.792Z,25.20
2018-05-23T10:56:34.958Z,25.30
2018-05-23T10:59:01.893Z,25.20
2018-05-23T11:01:28.787Z,25.50
2018-05-23T11:03:55.033Z,25.50
2018-05-23T11:06:21.206Z,25.50
2018-05-23T11:08:47.392Z,25.60
2018-05-23T11:11:13.650Z,25.70
2018-05-23T11:13:40.548Z,25.40
2018-05-23T11:16:07.070Z,25.40
2018-05-23T11:18:33.214Z,25.30
2018-05-23T11:20:59.363Z,25.50
2018-05-23T11:23:25.520Z,25.60
2018-05-23T11:25:52.432Z,25.20
2018-05-23T11:28:18.595Z,25.20
2018-05-23T11:30:45.504Z,25.50
2018-05-23T11:33:11.760Z,25.40
2018-05-23T11:35:38.652Z,25.70
2018-05-23T11:38:04.868Z,25.70
2018-05-23T11:40:31.029Z,25.60
2018-05-23T11:42:57.308Z,25.60
2018-05-23T11:45:23.451Z,25.50
2018-05-23T11:47:49.640Z,25.60
2018-05-23T11:50:16.548Z,25.60
2018-05-23T11:52:42.740Z,25.60
2018-05-23T11:55:08.916Z,25.70
2018-05-23T11:57:35.073Z,25.50
2018-05-23T12:00:02.091Z,25.60
2018-05-23T12:02:28.244Z,25.50
2018-05-23T12:04:55.136Z,25.60
2018-05-23T12:07:21.324Z,25.60
2018-05-23T12:09:48.436Z,25.10
2018-05-23T12:12:14.617Z,25.10
2018-05-23T12:14:40.785Z,25.00
2018-05-23T12:17:06.959Z,25.10
2018-05-23T12:19:33.963Z,25.30
2018-05-23T12:22:00.368Z,25.30
2018-05-23T12:24:26.924Z,25.40
2018-05-23T12:26:53.525Z,25.60
2018-05-23T12:29:19.668Z,25.60
2018-05-23T12:31:45.853Z,25.60
2018-05-23T12:34:12.816Z,25.70
2018-05-23T12:36:39.724Z,25.60
2018-05-23T12:39:05.934Z,25.60
2018-05-23T12:41:32.089Z,25.20
2018-05-23T12:43:58.228Z,25.10
2018-05-23T12:46:24.478Z,25.30
2018-05-23T12:48:50.804Z,25.30
2018-05-23T12:51:17.887Z,25.20
2018-05-23T12:53:44.164Z,25.10
2018-05-23T12:56:10.334Z,25.30
2018-05-23T12:58:36.495Z,25.40
2018-05-23T13:01:02.669Z,25.40
2018-05-23T13:03:29.650Z,25.70
2018-05-23T13:05:56.540Z,25.60
2018-05-23T13:08:22.716Z,25.60
2018-05-23T13:10:48.946Z,25.50
2018-05-23T13:13:15.244Z,25.40
2018-05-23T13:15:42.242Z,25.10
2018-05-23T13:18:08.424Z,25.10
2018-05-23T13:20:34.581Z,25.20
2018-05-23T13:23:00.740Z,25.30
2018-05-23T13:25:26.928Z,25.30
2018-05-23T13:27:53.116Z,25.50
2018-05-23T13:30:20.063Z,25.70
2018-05-23T13:32:47.008Z,25.60
2018-05-23T13:35:13.896Z,25.70
2018-05-23T13:37:40.062Z,25.70
2018-05-23T13:40:06.252Z,25.60
2018-05-23T13:42:32.430Z,25.50
2018-05-23T13:44:59.432Z,25.40
2018-05-23T13:47:25.579Z,25.40
2018-05-23T13:49:51.879Z,25.50
2018-05-23T13:52:18.056Z,25.40
2018-05-23T13:54:44.216Z,25.40
2018-05-23T13:57:10.500Z,25.60
2018-05-23T13:59:36.642Z,25.80
2018-05-23T14:02:02.797Z,25.90
2018-05-23T14:04:29.749Z,26.10
2018-05-23T14:06:55.899Z,26.10
2018-05-23T14:09:22.055Z,26.00
2018-05-23T14:11:48.208Z,25.80
2018-05-23T14:14:15.883Z,25.60
2018-05-23T14:16:42.792Z,25.80
2018-05-23T14:19:08.987Z,25.80
2018-05-23T14:21:35.258Z,25.90
2018-05-23T14:24:01.437Z,25.70
2018-05-23T14:26:27.628Z,25.80
2018-05-23T14:28:53.772Z,25.80
2018-05-23T14:31:20.703Z,26.00
2018-05-23T14:33:46.860Z,25.90
2018-05-23T14:36:13.092Z,26.00
2018-05-23T14:38:39.282Z,26.00
2018-05-23T14:41:05.456Z,26.00
2018-05-23T14:43:31.842Z,25.80
2018-05-23T14:45:57.944Z,25.50
2018-05-23T14:48:24.276Z,25.30
2018-05-23T14:50:50.437Z,25.30
2018-05-23T14:53:17.321Z,25.40
2018-05-23T14:55:43.621Z,25.40
2018-05-23T14:58:10.516Z,25.30
2018-05-23T15:00:36.711Z,25.30
2018-05-23T15:03:02.873Z,25.30
2018-05-23T15:05:29.063Z,25.40
2018-05-23T15:07:55.640Z,25.50
2018-05-23T15:10:21.792Z,25.40
2018-05-23T15:12:47.984Z,25.30
2018-05-23T15:15:14.177Z,25.40
2018-05-23T15:17:41.319Z,25.40
2018-05-23T15:20:08.348Z,25.40
2018-05-23T15:22:35.252Z,25.30
2018-05-23T15:25:01.399Z,25.30
2018-05-23T15:27:27.561Z,25.20
2018-05-23T15:29:54.449Z,25.20
2018-05-23T15:32:20.648Z,25.20
2018-05-23T15:34:47.541Z,25.20
2018-05-23T15:37:14.244Z,25.20
2018-05-23T15:39:40.413Z,25.20
2018-05-23T15:42:06.701Z,25.10
2018-05-23T15:44:32.995Z,25.10
2018-05-23T15:46:59.200Z,25.10
2018-05-23T15:49:25.836Z,25.10
2018-05-23T15:51:51.978Z,25.00
2018-05-23T15:54:18.189Z,24.90
2018-05-23T15:56:44.432Z,24.90
2018-05-23T15:59:11.056Z,24.90
2018-05-23T16:01:37.236Z,24.80
2018-05-23T16:04:04.221Z,24.60
2018-05-23T16:06:30.398Z,24.60
2018-05-23T16:08:57.396Z,24.60
2018-05-23T16:11:23.559Z,24.50
2018-05-23T16:13:49.751Z,24.50
2018-05-23T16:16:16.072Z,24.50
2018-05-23T16:18:42.289Z,24.40
2018-05-23T16:21:08.812Z,24.50
2018-05-23T16:23:35.001Z,24.50
2018-05-23T16:26:01.936Z,24.30
2018-05-23T16:28:28.229Z,24.30
2018-05-23T16:30:54.369Z,24.30
2018-05-23T16:33:20.910Z,24.20
2018-05-23T16:35:47.120Z,24.20
2018-05-23T16:38:13.376Z,24.20
2018-05-23T16:40:39.740Z,24.10
2018-05-23T16:43:05.899Z,24.10
2018-05-23T16:45:37.199Z,24.10
2018-05-23T16:48:03.599Z,24.10
2018-05-23T16:50:29.767Z,24.10
2018-05-23T16:52:55.933Z,24.00
2018-05-23T16:55:22.875Z,23.90
2018-05-23T16:57:50.244Z,23.90
2018-05-23T17:00:16.440Z,23.90
2018-05-23T17:02:42.568Z,23.90
2018-05-23T17:05:08.816Z,23.90
2018-05-23T17:07:35.688Z,23.90
2018-05-23T17:10:01.832Z,23.90
2018-05-23T17:12:27.991Z,23.90
2018-05-23T17:15:09.169Z,23.90
2018-05-23T17:17:35.335Z,24.00
2018-05-23T17:20:01.484Z,23.90
2018-05-23T17:22:27.640Z,23.80
2018-05-23T17:24:53.808Z,23.80
2018-05-23T17:27:20.686Z,23.80
2018-05-23T17:29:46.833Z,23.80
2018-05-23T17:32:12.957Z,23.90
2018-05-23T17:34:39.107Z,23.80
2018-05-23T17:37:05.277Z,23.70
2018-05-23T17:39:31.465Z,23.70
2018-05-23T17:41:57.600Z,23.70
2018-05-23T17:44:24.468Z,23.50
2018-05-23T17:46:50.651Z,23.50
2018-05-23T17:49:16.803Z,23.40
2018-05-23T17:51:43.738Z,23.40
2018-05-23T17:54:10.044Z,23.30
2018-05-23T17:56:36.184Z,23.40
2018-05-23T17:59:02.340Z,23.30
2018-05-23T18:01:29.233Z,23.30
2018-05-23T18:03:56.514Z,23.30
2018-05-23T18:06:22.751Z,23.20
2018-05-23T18:08:48.938Z,23.20
2018-05-23T18:11:15.166Z,23.20
2018-05-23T18:13:41.379Z,23.10
2018-05-23T18:16:07.668Z,23.00
2018-05-23T18:18:33.928Z,23.00
2018-05-23T18:21:00.203Z,23.00
2018-05-23T18:23:26.417Z,22.90
2018-05-23T18:25:52.611Z,22.90
2018-05-23T18:28:18.862Z,22.90
2018-05-23T18:30:45.007Z,22.80
2018-05-23T18:33:11.525Z,22.80
2018-05-23T18:35:37.724Z,22.80
2018-05-23T18:38:04.640Z,22.80
2018-05-23T18:40:31.266Z,22.70
2018-05-23T18:42:57.590Z,22.70
2018-05-23T18:45:23.808Z,22.70
2018-05-23T18:47:50.060Z,22.60
2018-05-23T18:50:16.261Z,22.70
2018-05-23T18:52:42.801Z,22.60
2018-05-23T18:55:09.148Z,22.40
2018-05-23T18:57:35.331Z,22.30
2018-05-23T19:00:01.514Z,22.30
2018-05-23T19:02:27.686Z,22.20
2018-05-23T19:04:53.896Z,22.10
2018-05-23T19:07:20.037Z,22.10
2018-05-23T19:09:46.198Z,22.00
2018-05-23T19:12:12.410Z,22.00
2018-05-23T19:14:38.975Z,22.00
2018-05-23T19:17:05.353Z,21.90
2018-05-23T19:19:31.621Z,21.90
2018-05-23T19:21:57.864Z,21.80
2018-05-23T19:24:24.304Z,21.80
2018-05-23T19:26:50.456Z,21.70
2018-05-23T19:29:17.664Z,21.60
2018-05-23T19:31:43.936Z,21.60
2018-05-23T19:34:10.114Z,19.60
2018-05-23T19:36:36.261Z,18.20
2018-05-23T19:39:02.504Z,17.40
2018-05-23T19:41:28.695Z,17.40
2018-05-23T19:43:54.848Z,17.50
2018-05-23T19:46:20.992Z,17.60
2018-05-23T19:48:47.322Z,17.70
2018-05-23T19:51:13.603Z,17.80
2018-05-23T19:53:39.897Z,18.30
2018-05-23T19:56:06.089Z,18.50
2018-05-23T19:58:32.241Z,19.00
2018-05-23T20:00:59.115Z,19.20
2018-05-23T20:03:25.999Z,19.50
2018-05-23T20:05:52.152Z,19.50
2018-05-23T20:08:18.772Z,19.50
2018-05-23T20:10:44.896Z,19.60
2018-05-23T20:13:11.036Z,19.60
2018-05-23T20:15:37.313Z,19.60
2018-05-23T20:18:04.204Z,19.60
2018-05-23T20:20:30.341Z,19.60
2018-05-23T20:22:56.490Z,19.60
2018-05-23T20:25:22.648Z,19.60
2018-05-23T20:27:48.793Z,19.70
2018-05-23T20:30:14.982Z,19.60
2018-05-23T20:32:41.904Z,19.60
2018-05-23T20:35:08.062Z,19.50
2018-05-23T20:37:34.956Z,19.50
2018-05-23T20:40:01.131Z,19.50
2018-05-23T20:42:28.055Z,19.40
2018-05-23T20:44:54.187Z,19.40
2018-05-23T20:47:20.792Z,19.40
2018-05-23T20:49:46.968Z,19.40
2018-05-23T20:52:13.877Z,19.40
2018-05-23T20:54:40.099Z,19.40
2018-05-23T20:57:06.349Z,19.30
2018-05-23T20:59:32.534Z,19.30
2018-05-23T21:01:58.693Z,19.20
2018-05-23T21:04:24.832Z,19.30
2018-05-23T21:06:51.106Z,19.30
2018-05-23T21:09:17.260Z,19.20
2018-05-23T21:11:43.432Z,19.10
2018-05-23T21:14:09.590Z,19.00
2018-05-23T21:16:35.835Z,19.00
2018-05-23T21:19:02.039Z,19.00
2018-05-23T21:21:28.308Z,19.00
2018-05-23T21:23:54.451Z,18.90
2018-05-23T21:26:20.619Z,18.80
2018-05-23T21:28:47.532Z,18.70
2018-05-23T21:31:13.682Z,18.70
2018-05-23T21:33:40.583Z,18.60
2018-05-23T21:36:06.887Z,18.60
2018-05-23T21:38:33.039Z,18.60
2018-05-23T21:40:59.184Z,18.60
2018-05-23T21:43:25.344Z,18.60
2018-05-23T21:45:52.247Z,18.40
2018-05-23T21:48:18.475Z,18.40
2018-05-23T21:50:45.850Z,18.30
2018-05-23T21:53:12.067Z,18.30
2018-05-23T21:55:38.301Z,18.30
2018-05-23T21:58:04.467Z,18.20
2018-05-23T22:00:30.708Z,18.10
2018-05-23T22:02:56.891Z,18.10
2018-05-23T22:05:23.052Z,18.00
2018-05-23T22:07:49.347Z,18.00
2018-05-23T22:10:15.488Z,17.90
2018-05-23T22:12:42.384Z,17.90
2018-05-23T22:15:08.613Z,17.80
2018-05-23T22:17:34.744Z,17.80
2018-05-23T22:20:01.016Z,17.80
2018-05-23T22:22:27.906Z,17.70
2018-05-23T22:24:54.103Z,17.60
2018-05-23T22:27:21.109Z,17.50
2018-05-23T22:29:47.287Z,17.50
2018-05-23T22:32:13.436Z,17.40
2018-05-23T22:34:39.588Z,17.40
2018-05-23T22:37:06.520Z,17.20
2018-05-23T22:39:32.706Z,17.20
2018-05-23T22:41:59.598Z,17.20
2018-05-23T22:44:26.228Z,17.20
2018-05-23T22:46:52.400Z,17.10
2018-05-23T22:49:18.550Z,17.00
2018-05-23T22:51:44.716Z,16.90
2018-05-23T22:54:11.137Z,16.80
2018-05-23T22:56:37.280Z,16.80
2018-05-23T22:59:03.656Z,16.70
2018-05-23T23:01:30.607Z,16.50
2018-05-23T23:03:57.635Z,16.50
2018-05-23T23:06:25.090Z,16.50
2018-05-23T23:08:51.249Z,16.40
2018-05-23T23:11:17.405Z,16.30
2018-05-23T23:13:43.622Z,16.10
2018-05-23T23:16:09.715Z,16.10
2018-05-23T23:18:36.612Z,15.90
2018-05-23T23:21:02.796Z,15.90
2018-05-23T23:23:29.700Z,15.70
2018-05-23T23:25:55.880Z,15.70
2018-05-23T23:28:22.022Z,15.60
2018-05-23T23:30:48.211Z,15.50
2018-05-23T23:33:15.103Z,15.50
2018-05-23T23:35:41.362Z,15.50
2018-05-23T23:38:07.504Z,15.40
2018-05-23T23:40:33.640Z,15.30
2018-05-23T23:43:00.544Z,15.20
2018-05-23T23:45:26.800Z,15.10
2018-05-23T23:47:53.025Z,15.10
2018-05-23T23:50:19.177Z,15.00
2018-05-23T23:52:46.069Z,14.90
2018-05-23T23:55:12.224Z,14.90
2018-05-23T23:57:38.398Z,14.90
